createdAt,value
2018-07-10T00:00:45.791Z,18.75
2018-07-10T00:01:52.324Z,18.75
2018-07-10T00:02:58.834Z,18.73
2018-07-10T00:04:05.349Z,18.76
2018-07-10T00:05:12.908Z,18.79
2018-07-10T00:06:18.380Z,18.80
2018-07-10T00:07:24.931Z,18.78
2018-07-10T00:08:31.426Z,18.76
2018-07-10T00:09:38.931Z,18.73
2018-07-10T00:10:44.461Z,18.72
2018-07-10T00:11:50.978Z,18.68
2018-07-10T00:12:57.491Z,18.64
2018-07-10T00:14:04.019Z,18.62
2018-07-10T00:15:10.526Z,18.61
2018-07-10T00:16:17.045Z,18.60
2018-07-10T00:17:24.566Z,18.59
2018-07-10T00:18:30.084Z,18.64
2018-07-10T00:19:36.598Z,18.69
2018-07-10T00:20:43.119Z,18.71
2018-07-10T00:21:49.651Z,18.69
2018-07-10T00:22:56.156Z,18.62
2018-07-10T00:24:02.677Z,18.55
2018-07-10T00:25:09.202Z,18.54
2018-07-10T00:26:15.719Z,18.55
2018-07-10T00:27:22.243Z,18.51
2018-07-10T00:28:28.757Z,18.47
2018-07-10T00:29:35.278Z,18.47
2018-07-10T00:30:41.794Z,18.43
2018-07-10T00:31:48.363Z,18.40
2018-07-10T00:32:54.841Z,18.33
2018-07-10T00:34:01.361Z,18.28
2018-07-10T00:35:07.878Z,18.26
2018-07-10T00:36:14.401Z,18.22
2018-07-10T00:37:20.933Z,18.20
2018-07-10T00:38:27.451Z,18.17
2018-07-10T00:39:33.979Z,18.17
2018-07-10T00:40:40.496Z,18.21
2018-07-10T00:41:47.023Z,18.22
2018-07-10T00:42:53.563Z,18.21
2018-07-10T00:44:00.081Z,18.20
2018-07-10T00:45:06.604Z,18.21
2018-07-10T00:46:13.134Z,18.22
2018-07-10T00:47:19.673Z,18.20
2018-07-10T00:48:26.193Z,18.17
2018-07-10T00:49:33.728Z,18.14
2018-07-10T00:50:39.755Z,18.11
2018-07-10T00:51:45.805Z,18.08
2018-07-10T00:52:52.339Z,18.09
2018-07-10T00:53:59.866Z,18.09
2018-07-10T00:55:06.405Z,18.06
2018-07-10T00:56:11.937Z,18.06
2018-07-10T00:57:18.468Z,18.08
2018-07-10T00:58:25.010Z,18.06
2018-07-10T00:59:31.528Z,18.01
2018-07-10T01:00:39.055Z,17.99
2018-07-10T01:01:44.592Z,17.93
2018-07-10T01:02:51.116Z,17.87
2018-07-10T01:03:57.642Z,17.84
2018-07-10T01:05:04.159Z,17.82
2018-07-10T01:06:10.685Z,17.79
2018-07-10T01:07:17.206Z,17.79
2018-07-10T01:08:23.737Z,17.78
2018-07-10T01:09:30.259Z,17.83
2018-07-10T01:10:36.775Z,17.84
2018-07-10T01:11:44.294Z,17.83
2018-07-10T01:12:49.811Z,17.80
2018-07-10T01:13:56.339Z,17.76
2018-07-10T01:15:02.855Z,17.72
2018-07-10T01:16:10.364Z,17.67
2018-07-10T01:17:15.892Z,17.66
2018-07-10T01:18:22.426Z,17.70
2018-07-10T01:19:28.947Z,17.73
2018-07-10T01:20:35.465Z,17.71
2018-07-10T01:21:41.989Z,17.67
2018-07-10T01:22:48.519Z,17.66
2018-07-10T01:23:55.041Z,17.70
2018-07-10T01:25:01.555Z,17.73
2018-07-10T01:26:08.067Z,17.71
2018-07-10T01:27:15.594Z,17.67
2018-07-10T01:28:21.117Z,17.69
2018-07-10T01:29:27.647Z,17.68
2018-07-10T01:30:34.154Z,17.74
2018-07-10T01:31:40.679Z,17.71
2018-07-10T01:32:47.197Z,17.73
2018-07-10T01:33:53.727Z,17.71
2018-07-10T01:35:00.252Z,17.72
2018-07-10T01:36:06.755Z,17.71
2018-07-10T01:37:14.276Z,17.66
2018-07-10T01:38:19.795Z,17.64
2018-07-10T01:39:26.317Z,17.63
2018-07-10T01:40:32.912Z,17.65
2018-07-10T01:41:39.350Z,17.66
2018-07-10T01:42:45.869Z,17.68
2018-07-10T01:43:53.369Z,17.66
2018-07-10T01:44:58.901Z,17.62
2018-07-10T01:46:05.409Z,17.62
2018-07-10T01:47:11.918Z,17.64
2018-07-10T01:48:18.439Z,17.63
2018-07-10T01:49:24.954Z,17.70
2018-07-10T01:50:31.467Z,17.68
2018-07-10T01:51:37.987Z,17.69
2018-07-10T01:52:44.486Z,17.65
2018-07-10T01:53:51.003Z,17.69
2018-07-10T01:54:57.510Z,17.67
2018-07-10T01:56:04.019Z,17.65
2018-07-10T01:57:10.525Z,17.61
2018-07-10T01:58:17.046Z,17.61
2018-07-10T01:59:23.607Z,17.59
2018-07-10T02:00:30.050Z,17.57
2018-07-10T02:01:36.554Z,17.55
2018-07-10T02:02:43.060Z,17.51
2018-07-10T02:03:49.580Z,17.48
2018-07-10T02:04:56.079Z,17.45
2018-07-10T02:06:02.585Z,17.42
2018-07-10T02:07:10.094Z,17.43
2018-07-10T02:08:15.602Z,17.38
2018-07-10T02:09:22.111Z,17.33
2018-07-10T02:10:28.625Z,17.29
2018-07-10T02:11:35.127Z,17.26
2018-07-10T02:12:41.639Z,17.24
2018-07-10T02:13:48.148Z,17.21
2018-07-10T02:14:55.659Z,17.22
2018-07-10T02:16:01.174Z,17.29
2018-07-10T02:17:07.685Z,17.35
2018-07-10T02:18:14.193Z,17.36
2018-07-10T02:19:20.702Z,17.36
2018-07-10T02:20:27.219Z,17.31
2018-07-10T02:21:33.723Z,17.31
2018-07-10T02:22:40.232Z,17.26
2018-07-10T02:23:46.737Z,17.19
2018-07-10T02:24:53.253Z,17.12
2018-07-10T02:25:59.755Z,17.05
2018-07-10T02:27:06.277Z,16.98
2018-07-10T02:28:13.770Z,16.93
2018-07-10T02:29:19.290Z,16.95
2018-07-10T02:30:25.812Z,16.99
2018-07-10T02:31:32.302Z,17.05
2018-07-10T02:32:38.816Z,17.09
2018-07-10T02:33:45.326Z,17.06
2018-07-10T02:34:51.837Z,17.07
2018-07-10T02:35:58.345Z,17.12
2018-07-10T02:37:04.851Z,17.21
2018-07-10T02:38:11.351Z,17.24
2018-07-10T02:39:17.868Z,17.22
2018-07-10T02:40:24.365Z,17.21
2018-07-10T02:41:30.880Z,17.21
2018-07-10T02:42:37.365Z,17.24
2018-07-10T02:43:43.880Z,17.31
2018-07-10T02:44:50.384Z,17.33
2018-07-10T02:45:56.899Z,17.33
2018-07-10T02:47:03.390Z,17.32
2018-07-10T02:48:09.901Z,17.30
2018-07-10T02:49:16.401Z,17.26
2018-07-10T02:50:22.905Z,17.28
2018-07-10T02:51:29.399Z,17.25
2018-07-10T02:52:35.902Z,17.19
2018-07-10T02:53:42.397Z,17.14
2018-07-10T02:54:48.899Z,17.12
2018-07-10T02:55:55.389Z,17.03
2018-07-10T02:57:01.893Z,16.96
2018-07-10T02:58:08.382Z,16.92
2018-07-10T02:59:14.875Z,16.94
2018-07-10T03:00:21.374Z,16.97
2018-07-10T03:01:27.864Z,16.99
2018-07-10T03:02:34.342Z,17.01
2018-07-10T03:03:41.037Z,17.04
2018-07-10T03:04:48.335Z,17.07
2018-07-10T03:05:53.836Z,17.12
2018-07-10T03:07:00.325Z,17.17
2018-07-10T03:08:07.805Z,17.19
2018-07-10T03:09:13.310Z,17.19
2018-07-10T03:10:19.807Z,17.19
2018-07-10T03:11:27.297Z,17.22
2018-07-10T03:12:32.888Z,17.26
2018-07-10T03:13:40.285Z,17.26
2018-07-10T03:14:45.782Z,17.25
2018-07-10T03:15:52.286Z,17.24
2018-07-10T03:16:58.776Z,17.26
2018-07-10T03:18:05.267Z,17.27
2018-07-10T03:19:11.767Z,17.26
2018-07-10T03:20:19.261Z,17.24
2018-07-10T03:21:24.758Z,17.21
2018-07-10T03:22:31.256Z,17.16
2018-07-10T03:23:37.763Z,17.15
2018-07-10T03:24:44.233Z,17.13
2018-07-10T03:25:50.731Z,17.13
2018-07-10T03:26:57.212Z,17.14
2018-07-10T03:28:03.705Z,17.16
2018-07-10T03:29:10.209Z,17.18
2018-07-10T03:30:16.703Z,17.20
2018-07-10T03:31:23.195Z,17.19
2018-07-10T03:32:29.688Z,17.19
2018-07-10T03:33:36.167Z,17.20
2018-07-10T03:34:42.661Z,17.16
2018-07-10T03:35:49.349Z,17.11
2018-07-10T03:36:55.645Z,17.06
2018-07-10T03:38:02.125Z,17.02
2018-07-10T03:39:08.623Z,17.01
2018-07-10T03:40:15.108Z,16.96
2018-07-10T03:41:22.596Z,16.92
2018-07-10T03:42:28.077Z,16.88
2018-07-10T03:43:34.558Z,16.85
2018-07-10T03:44:41.058Z,16.82
2018-07-10T03:45:47.529Z,16.79
2018-07-10T03:46:53.999Z,16.80
2018-07-10T03:48:00.482Z,16.82
2018-07-10T03:49:06.971Z,16.87
2018-07-10T03:50:13.440Z,16.91
2018-07-10T03:51:19.919Z,16.93
2018-07-10T03:52:27.395Z,16.93
2018-07-10T03:53:32.866Z,16.90
2018-07-10T03:54:39.345Z,16.89
2018-07-10T03:55:46.901Z,16.87
2018-07-10T03:56:52.315Z,16.85
2018-07-10T03:57:58.789Z,16.81
2018-07-10T03:59:05.255Z,16.75
2018-07-10T04:00:11.727Z,16.69
2018-07-10T04:01:18.209Z,16.60
2018-07-10T04:02:24.682Z,16.52
2018-07-10T04:03:31.148Z,16.46
2018-07-10T04:04:37.623Z,16.43
2018-07-10T04:05:44.100Z,16.38
2018-07-10T04:06:50.569Z,16.35
2018-07-10T04:07:57.019Z,16.32
2018-07-10T04:09:03.552Z,16.29
2018-07-10T04:10:09.967Z,16.27
2018-07-10T04:11:16.431Z,16.26
2018-07-10T04:12:22.882Z,16.22
2018-07-10T04:13:29.364Z,16.20
2018-07-10T04:14:35.817Z,16.17
2018-07-10T04:15:42.282Z,16.15
2018-07-10T04:16:48.743Z,16.14
2018-07-10T04:17:55.215Z,16.15
2018-07-10T04:19:01.694Z,16.13
2018-07-10T04:20:08.116Z,16.11
2018-07-10T04:21:15.573Z,16.05
2018-07-10T04:22:21.020Z,16.01
2018-07-10T04:23:27.477Z,15.97
2018-07-10T04:24:33.924Z,15.95
2018-07-10T04:25:40.371Z,15.94
2018-07-10T04:26:46.941Z,15.92
2018-07-10T04:27:53.268Z,15.90
2018-07-10T04:28:59.854Z,15.89
2018-07-10T04:30:06.181Z,15.88
2018-07-10T04:31:12.636Z,15.86
2018-07-10T04:32:19.078Z,15.85
2018-07-10T04:33:25.514Z,15.83
2018-07-10T04:34:31.972Z,15.82
2018-07-10T04:35:38.614Z,15.83
2018-07-10T04:36:44.866Z,15.81
2018-07-10T04:37:51.300Z,15.80
2018-07-10T04:38:57.763Z,15.80
2018-07-10T04:40:04.193Z,15.79
2018-07-10T04:41:10.632Z,15.77
2018-07-10T04:42:17.147Z,15.73
2018-07-10T04:43:23.526Z,15.71
2018-07-10T04:44:29.971Z,15.70
2018-07-10T04:45:36.405Z,15.73
2018-07-10T04:46:43.871Z,15.73
2018-07-10T04:47:49.295Z,15.70
2018-07-10T04:48:55.753Z,15.68
2018-07-10T04:50:02.678Z,15.66
2018-07-10T04:51:08.618Z,15.65
2018-07-10T04:52:15.064Z,15.63
2018-07-10T04:53:21.519Z,15.62
2018-07-10T04:54:27.962Z,15.59
2018-07-10T04:55:34.406Z,15.60
2018-07-10T04:56:40.928Z,15.60
2018-07-10T04:57:47.273Z,15.61
2018-07-10T04:58:53.709Z,15.65
2018-07-10T05:00:00.147Z,15.70
2018-07-10T05:01:06.589Z,15.77
2018-07-10T05:02:13.041Z,15.82
2018-07-10T05:03:19.476Z,15.86
2018-07-10T05:04:25.930Z,15.82
2018-07-10T05:05:32.377Z,15.79
2018-07-10T05:06:38.902Z,15.75
2018-07-10T05:07:45.261Z,15.71
2018-07-10T05:08:51.728Z,15.66
2018-07-10T05:09:58.152Z,15.59
2018-07-10T05:11:04.587Z,15.57
2018-07-10T05:12:11.103Z,15.53
2018-07-10T05:13:17.477Z,15.53
2018-07-10T05:14:23.915Z,15.54
2018-07-10T05:15:30.391Z,15.55
2018-07-10T05:16:36.896Z,15.55
2018-07-10T05:17:43.287Z,15.58
2018-07-10T05:18:49.687Z,15.58
2018-07-10T05:19:56.125Z,15.56
2018-07-10T05:21:02.565Z,15.54
2018-07-10T05:22:09.010Z,15.53
2018-07-10T05:23:15.461Z,15.53
2018-07-10T05:24:21.898Z,15.55
2018-07-10T05:25:28.337Z,15.58
2018-07-10T05:26:34.784Z,15.67
2018-07-10T05:27:41.222Z,15.68
2018-07-10T05:28:47.734Z,15.62
2018-07-10T05:29:54.110Z,15.67
2018-07-10T05:31:01.557Z,15.62
2018-07-10T05:32:07.009Z,15.56
2018-07-10T05:33:13.457Z,15.56
2018-07-10T05:34:19.897Z,15.53
2018-07-10T05:35:26.370Z,15.50
2018-07-10T05:36:32.933Z,15.48
2018-07-10T05:37:39.258Z,15.45
2018-07-10T05:38:45.674Z,15.45
2018-07-10T05:39:52.134Z,15.47
2018-07-10T05:40:59.079Z,15.51
2018-07-10T05:42:05.037Z,15.50
2018-07-10T05:43:11.480Z,15.47
2018-07-10T05:44:17.924Z,15.51
2018-07-10T05:45:24.378Z,15.54
2018-07-10T05:46:31.909Z,15.54
2018-07-10T05:47:37.262Z,15.53
2018-07-10T05:48:43.704Z,15.55
2018-07-10T05:49:50.153Z,15.59
2018-07-10T05:50:56.606Z,15.59
2018-07-10T05:52:03.065Z,15.67
2018-07-10T05:53:09.492Z,15.70
2018-07-10T05:54:16.436Z,15.67
2018-07-10T05:55:22.398Z,15.68
2018-07-10T05:56:28.920Z,15.68
2018-07-10T05:57:35.286Z,15.67
2018-07-10T05:58:41.783Z,15.72
2018-07-10T05:59:48.180Z,15.75
2018-07-10T06:00:54.638Z,15.72
2018-07-10T06:02:01.097Z,15.68
2018-07-10T06:03:07.858Z,15.64
2018-07-10T06:04:14.014Z,15.63
2018-07-10T06:05:20.469Z,15.67
2018-07-10T06:06:26.928Z,15.73
2018-07-10T06:07:33.387Z,15.79
2018-07-10T06:08:39.845Z,15.78
2018-07-10T06:09:46.322Z,15.83
2018-07-10T06:10:52.761Z,15.96
2018-07-10T06:11:59.225Z,16.11
2018-07-10T06:13:05.707Z,16.10
2018-07-10T06:14:12.159Z,15.97
2018-07-10T06:15:18.633Z,16.00
2018-07-10T06:16:25.113Z,16.00
2018-07-10T06:17:31.585Z,16.05
2018-07-10T06:18:38.057Z,16.12
2018-07-10T06:19:44.522Z,16.16
2018-07-10T06:20:50.988Z,16.24
2018-07-10T06:21:57.465Z,16.35
2018-07-10T06:23:03.961Z,16.58
2018-07-10T06:24:10.430Z,16.80
2018-07-10T06:25:16.922Z,17.01
2018-07-10T06:26:23.400Z,17.15
2018-07-10T06:27:29.900Z,17.19
2018-07-10T06:28:36.376Z,17.10
2018-07-10T06:29:42.866Z,17.20
2018-07-10T06:30:49.338Z,17.54
2018-07-10T06:31:55.834Z,17.75
2018-07-10T06:33:02.348Z,17.84
2018-07-10T06:34:08.830Z,18.11
2018-07-10T06:35:15.352Z,18.27
2018-07-10T06:36:21.855Z,18.28
2018-07-10T06:37:28.377Z,18.42
2018-07-10T06:38:34.899Z,18.26
2018-07-10T06:39:41.429Z,18.23
2018-07-10T06:40:47.948Z,18.43
2018-07-10T06:41:54.471Z,18.47
2018-07-10T06:43:01.014Z,18.37
2018-07-10T06:44:08.549Z,18.32
2018-07-10T06:45:14.089Z,18.18
2018-07-10T06:46:20.699Z,18.35
2018-07-10T06:47:27.175Z,18.23
2018-07-10T06:48:33.770Z,18.26
2018-07-10T06:49:40.253Z,18.30
2018-07-10T06:50:46.773Z,17.90
2018-07-10T06:51:53.313Z,17.60
2018-07-10T06:53:00.026Z,17.55
2018-07-10T06:54:06.381Z,17.42
2018-07-10T06:55:12.902Z,17.38
2018-07-10T06:56:19.423Z,17.42
2018-07-10T06:57:25.959Z,17.36
2018-07-10T06:58:32.480Z,17.20
2018-07-10T06:59:39.488Z,16.99
2018-07-10T07:00:45.581Z,16.74
2018-07-10T07:01:52.016Z,16.60
2018-07-10T07:02:58.518Z,16.59
2018-07-10T07:04:05.024Z,16.49
2018-07-10T07:05:11.510Z,16.36
2018-07-10T07:06:17.996Z,16.38
2018-07-10T07:07:24.484Z,16.27
2018-07-10T07:08:30.975Z,16.24
2018-07-10T07:09:37.457Z,16.18
2018-07-10T07:10:43.934Z,16.09
2018-07-10T07:11:50.408Z,16.10
2018-07-10T07:12:56.885Z,16.20
2018-07-10T07:14:03.383Z,16.59
2018-07-10T07:15:09.862Z,17.02
2018-07-10T07:16:16.344Z,17.17
2018-07-10T07:17:22.848Z,17.15
2018-07-10T07:18:29.349Z,17.25
2018-07-10T07:19:35.862Z,17.24
2018-07-10T07:20:42.354Z,17.51
2018-07-10T07:21:48.929Z,19.61
2018-07-10T07:22:55.380Z,18.86
2018-07-10T07:24:01.897Z,18.64
2018-07-10T07:25:08.408Z,18.45
2018-07-10T07:26:14.924Z,18.00
2018-07-10T07:27:21.458Z,17.92
2018-07-10T07:28:27.993Z,19.69
2018-07-10T07:29:34.526Z,21.48
2018-07-10T07:30:41.043Z,22.05
2018-07-10T07:31:47.584Z,20.28
2018-07-10T07:32:54.113Z,19.38
2018-07-10T07:34:00.642Z,19.12
2018-07-10T07:35:07.269Z,19.83
2018-07-10T07:36:13.715Z,19.74
2018-07-10T07:37:20.263Z,20.33
2018-07-10T07:38:26.927Z,19.06
2018-07-10T07:39:33.391Z,18.45
2018-07-10T07:40:39.936Z,18.24
2018-07-10T07:41:46.520Z,18.22
2018-07-10T07:42:54.111Z,18.96
2018-07-10T07:43:59.809Z,22.47
2018-07-10T07:45:06.239Z,22.07
2018-07-10T07:46:12.840Z,21.02
2018-07-10T07:47:19.429Z,20.21
2018-07-10T07:48:26.017Z,19.49
2018-07-10T07:49:32.634Z,19.22
2018-07-10T07:50:39.231Z,19.16
2018-07-10T07:51:45.819Z,19.19
2018-07-10T07:52:52.419Z,19.07
2018-07-10T07:53:59.029Z,18.75
2018-07-10T07:55:05.617Z,18.66
2018-07-10T07:56:12.211Z,18.87
2018-07-10T07:57:18.816Z,19.34
2018-07-10T07:58:25.662Z,19.82
2018-07-10T07:59:32.017Z,19.76
2018-07-10T08:00:38.608Z,19.47
2018-07-10T08:01:45.232Z,19.53
2018-07-10T08:02:51.840Z,19.79
2018-07-10T08:03:58.481Z,20.17
2018-07-10T08:05:05.110Z,20.44
2018-07-10T08:06:11.744Z,20.74
2018-07-10T08:07:18.400Z,21.10
2018-07-10T08:08:25.050Z,21.10
2018-07-10T08:09:31.732Z,21.30
2018-07-10T08:10:38.411Z,21.51
2018-07-10T08:11:45.179Z,21.89
2018-07-10T08:12:51.779Z,22.11
2018-07-10T08:13:58.461Z,21.73
2018-07-10T08:15:05.179Z,21.00
2018-07-10T08:16:12.898Z,20.06
2018-07-10T08:17:18.544Z,20.19
2018-07-10T08:18:25.226Z,20.51
2018-07-10T08:19:31.926Z,20.90
2018-07-10T08:20:38.619Z,21.14
2018-07-10T08:21:45.307Z,21.36
2018-07-10T08:22:51.991Z,21.36
2018-07-10T08:23:59.686Z,21.26
2018-07-10T08:25:05.393Z,21.26
2018-07-10T08:26:12.083Z,21.18
2018-07-10T08:27:18.774Z,21.18
2018-07-10T08:28:25.478Z,21.20
2018-07-10T08:29:32.212Z,21.04
2018-07-10T08:30:38.900Z,20.95
2018-07-10T08:31:45.623Z,20.90
2018-07-10T08:32:52.346Z,20.71
2018-07-10T08:33:59.086Z,20.75
2018-07-10T08:35:05.778Z,20.85
2018-07-10T08:36:12.496Z,20.90
2018-07-10T08:37:19.202Z,20.94
2018-07-10T08:38:25.929Z,20.69
2018-07-10T08:39:32.636Z,20.45
2018-07-10T08:40:39.335Z,20.25
2018-07-10T08:41:46.060Z,20.62
2018-07-10T08:42:52.748Z,21.10
2018-07-10T08:43:59.475Z,21.17
2018-07-10T08:45:06.185Z,21.47
2018-07-10T08:46:12.907Z,21.79
2018-07-10T08:47:19.647Z,21.96
2018-07-10T08:48:26.390Z,22.34
2018-07-10T08:49:33.136Z,22.68
2018-07-10T08:50:39.942Z,22.74
2018-07-10T08:51:46.656Z,22.74
2018-07-10T08:52:53.415Z,22.69
2018-07-10T08:54:00.198Z,22.64
2018-07-10T08:55:06.972Z,22.39
2018-07-10T08:56:13.751Z,22.15
2018-07-10T08:57:20.525Z,22.19
2018-07-10T08:58:27.312Z,21.68
2018-07-10T08:59:34.112Z,21.35
2018-07-10T09:00:40.877Z,21.26
2018-07-10T09:01:47.642Z,20.98
2018-07-10T09:02:54.401Z,20.63
2018-07-10T09:04:01.150Z,20.41
2018-07-10T09:05:07.906Z,20.09
2018-07-10T09:06:14.643Z,20.13
2018-07-10T09:07:21.365Z,20.12
2018-07-10T09:08:28.089Z,20.04
2018-07-10T09:09:34.919Z,20.13
2018-07-10T09:10:41.539Z,20.25
2018-07-10T09:11:48.259Z,20.46
2018-07-10T09:12:55.263Z,20.57
2018-07-10T09:14:01.759Z,20.72
2018-07-10T09:15:08.405Z,21.01
2018-07-10T09:16:15.135Z,21.22
2018-07-10T09:17:21.870Z,21.14
2018-07-10T09:18:28.623Z,20.89
2018-07-10T09:19:35.368Z,20.94
2018-07-10T09:20:42.137Z,20.87
2018-07-10T09:21:48.918Z,20.81
2018-07-10T09:22:55.638Z,20.69
2018-07-10T09:24:02.394Z,20.63
2018-07-10T09:25:09.157Z,20.68
2018-07-10T09:26:15.913Z,20.73
2018-07-10T09:27:22.672Z,20.59
2018-07-10T09:28:29.425Z,20.66
2018-07-10T09:29:36.204Z,20.85
2018-07-10T09:30:42.975Z,20.94
2018-07-10T09:31:49.740Z,20.97
2018-07-10T09:32:56.511Z,21.19
2018-07-10T09:34:03.296Z,21.61
2018-07-10T09:35:10.090Z,21.78
2018-07-10T09:36:16.864Z,21.67
2018-07-10T09:37:23.663Z,21.17
2018-07-10T09:38:30.440Z,21.03
2018-07-10T09:39:37.217Z,20.96
2018-07-10T09:40:44.005Z,21.16
2018-07-10T09:41:50.758Z,21.49
2018-07-10T09:42:57.535Z,21.52
2018-07-10T09:44:04.393Z,22.04
2018-07-10T09:45:11.087Z,22.29
2018-07-10T09:46:17.863Z,22.25
2018-07-10T09:47:24.747Z,22.43
2018-07-10T09:48:31.451Z,22.88
2018-07-10T09:49:38.253Z,23.27
2018-07-10T09:50:45.067Z,23.29
2018-07-10T09:51:51.885Z,23.42
2018-07-10T09:52:58.720Z,23.27
2018-07-10T09:54:05.743Z,23.09
2018-07-10T09:55:12.392Z,23.19
2018-07-10T09:56:19.227Z,23.37
2018-07-10T09:57:26.056Z,23.55
2018-07-10T09:58:32.892Z,23.32
2018-07-10T09:59:39.744Z,23.21
2018-07-10T10:00:46.609Z,23.28
2018-07-10T10:01:53.487Z,23.17
2018-07-10T10:03:00.345Z,22.81
2018-07-10T10:04:07.208Z,22.44
2018-07-10T10:05:15.057Z,22.04
2018-07-10T10:06:20.899Z,21.46
2018-07-10T10:07:27.739Z,21.39
2018-07-10T10:08:34.576Z,21.76
2018-07-10T10:09:41.406Z,22.11
2018-07-10T10:10:48.235Z,22.15
2018-07-10T10:11:55.061Z,22.18
2018-07-10T10:13:01.902Z,22.56
2018-07-10T10:14:08.712Z,22.82
2018-07-10T10:15:15.727Z,22.56
2018-07-10T10:16:22.347Z,22.22
2018-07-10T10:17:29.171Z,22.21
2018-07-10T10:18:35.985Z,22.15
2018-07-10T10:19:42.918Z,22.24
2018-07-10T10:20:49.626Z,22.17
2018-07-10T10:21:56.437Z,22.28
2018-07-10T10:23:03.247Z,22.62
2018-07-10T10:24:10.050Z,22.43
2018-07-10T10:25:16.860Z,21.91
2018-07-10T10:26:23.654Z,21.81
2018-07-10T10:27:30.448Z,21.90
2018-07-10T10:28:37.245Z,22.06
2018-07-10T10:29:44.044Z,22.50
2018-07-10T10:30:50.848Z,22.87
2018-07-10T10:31:57.639Z,23.05
2018-07-10T10:33:04.460Z,22.69
2018-07-10T10:34:11.247Z,22.13
2018-07-10T10:35:18.032Z,21.99
2018-07-10T10:36:25.289Z,21.80
2018-07-10T10:37:31.560Z,21.70
2018-07-10T10:38:38.348Z,21.35
2018-07-10T10:39:45.064Z,21.06
2018-07-10T10:40:51.822Z,21.03
2018-07-10T10:41:58.582Z,20.96
2018-07-10T10:43:05.312Z,20.72
2018-07-10T10:44:12.063Z,20.43
2018-07-10T10:45:18.902Z,20.29
2018-07-10T10:46:25.541Z,20.41
2018-07-10T10:47:33.260Z,20.47
2018-07-10T10:48:38.994Z,20.78
2018-07-10T10:49:45.703Z,21.10
2018-07-10T10:50:52.431Z,21.18
2018-07-10T10:51:59.134Z,21.03
2018-07-10T10:53:05.838Z,20.95
2018-07-10T10:54:12.542Z,21.38
2018-07-10T10:55:19.243Z,22.09
2018-07-10T10:56:25.952Z,22.50
2018-07-10T10:57:32.663Z,23.02
2018-07-10T10:58:39.381Z,23.72
2018-07-10T10:59:46.115Z,24.14
2018-07-10T11:00:52.871Z,24.19
2018-07-10T11:01:59.612Z,24.47
2018-07-10T11:03:06.383Z,25.02
2018-07-10T11:04:13.165Z,25.31
2018-07-10T11:05:19.951Z,25.20
2018-07-10T11:06:26.766Z,24.87
2018-07-10T11:07:33.564Z,24.08
2018-07-10T11:08:40.387Z,23.73
2018-07-10T11:09:47.196Z,23.35
2018-07-10T11:10:54.016Z,23.50
2018-07-10T11:12:00.844Z,23.64
2018-07-10T11:13:07.707Z,23.24
2018-07-10T11:14:14.475Z,23.12
2018-07-10T11:15:21.317Z,22.84
2018-07-10T11:16:28.160Z,22.49
2018-07-10T11:17:35.021Z,22.21
2018-07-10T11:18:41.903Z,22.40
2018-07-10T11:19:48.900Z,22.75
2018-07-10T11:20:55.708Z,23.28
2018-07-10T11:22:02.650Z,23.90
2018-07-10T11:23:09.616Z,24.58
2018-07-10T11:24:16.607Z,24.95
2018-07-10T11:25:23.587Z,25.29
2018-07-10T11:26:30.566Z,25.57
2018-07-10T11:27:37.529Z,25.42
2018-07-10T11:28:44.520Z,25.16
2018-07-10T11:29:51.517Z,24.77
2018-07-10T11:30:58.521Z,24.43
2018-07-10T11:32:05.511Z,23.97
2018-07-10T11:33:12.495Z,23.33
2018-07-10T11:34:19.458Z,23.01
2018-07-10T11:35:26.442Z,22.73
2018-07-10T11:36:33.404Z,22.58
2018-07-10T11:37:40.350Z,22.48
2018-07-10T11:38:47.303Z,22.43
2018-07-10T11:39:54.218Z,22.46
2018-07-10T11:41:01.127Z,22.59
2018-07-10T11:42:08.044Z,22.96
2018-07-10T11:43:14.996Z,23.33
2018-07-10T11:44:22.063Z,23.82
2018-07-10T11:45:29.239Z,24.40
2018-07-10T11:46:36.521Z,24.59
2018-07-10T11:47:43.857Z,24.65
2018-07-10T11:48:51.276Z,24.47
2018-07-10T11:49:58.745Z,24.74
2018-07-10T11:51:06.149Z,24.86
2018-07-10T11:52:13.502Z,25.20
2018-07-10T11:53:20.778Z,25.56
2018-07-10T11:54:28.012Z,25.86
2018-07-10T11:55:35.221Z,25.14
2018-07-10T11:56:42.395Z,24.95
2018-07-10T11:57:49.509Z,24.75
2018-07-10T11:58:56.615Z,24.61
2018-07-10T12:00:03.665Z,24.32
2018-07-10T12:01:10.716Z,24.64
2018-07-10T12:02:17.757Z,25.07
2018-07-10T12:03:25.291Z,25.42
2018-07-10T12:04:31.837Z,25.42
2018-07-10T12:05:39.180Z,25.07
2018-07-10T12:06:45.947Z,25.14
2018-07-10T12:07:52.987Z,25.39
2018-07-10T12:09:00.082Z,25.25
2018-07-10T12:10:07.074Z,25.25
2018-07-10T12:11:14.091Z,25.30
2018-07-10T12:12:21.107Z,24.76
2018-07-10T12:13:28.086Z,24.30
2018-07-10T12:14:35.040Z,23.56
2018-07-10T12:15:41.995Z,23.44
2018-07-10T12:16:48.941Z,23.48
2018-07-10T12:17:55.867Z,23.76
2018-07-10T12:19:02.776Z,23.91
2018-07-10T12:20:09.681Z,23.92
2018-07-10T12:21:16.575Z,23.96
2018-07-10T12:22:23.488Z,23.79
2018-07-10T12:23:30.394Z,23.83
2018-07-10T12:24:37.293Z,23.99
2018-07-10T12:25:44.186Z,24.18
2018-07-10T12:26:52.098Z,24.31
2018-07-10T12:27:58.061Z,24.91
2018-07-10T12:29:04.956Z,25.51
2018-07-10T12:30:12.007Z,25.86
2018-07-10T12:31:19.121Z,26.09
2018-07-10T12:32:26.233Z,25.81
2018-07-10T12:33:33.320Z,25.77
2018-07-10T12:34:40.379Z,25.47
2018-07-10T12:35:47.440Z,25.22
2018-07-10T12:36:54.662Z,25.11
2018-07-10T12:38:01.494Z,25.14
2018-07-10T12:39:08.496Z,25.23
2018-07-10T12:40:15.491Z,24.99
2018-07-10T12:41:22.473Z,24.57
2018-07-10T12:42:29.447Z,24.76
2018-07-10T12:43:36.410Z,24.88
2018-07-10T12:44:43.384Z,25.12
2018-07-10T12:45:50.355Z,24.95
2018-07-10T12:46:57.340Z,24.82
2018-07-10T12:48:04.289Z,24.89
2018-07-10T12:49:11.233Z,24.79
2018-07-10T12:50:18.176Z,24.68
2018-07-10T12:51:25.095Z,24.65
2018-07-10T12:52:32.038Z,24.66
2018-07-10T12:53:38.940Z,24.69
2018-07-10T12:54:45.871Z,24.64
2018-07-10T12:55:52.780Z,24.66
2018-07-10T12:56:59.707Z,24.61
2018-07-10T12:58:06.621Z,24.62
2018-07-10T12:59:13.529Z,24.49
2018-07-10T13:00:20.432Z,24.32
2018-07-10T13:01:27.330Z,24.35
2018-07-10T13:02:34.235Z,24.41
2018-07-10T13:03:42.119Z,24.36
2018-07-10T13:04:48.019Z,24.09
2018-07-10T13:05:54.917Z,23.96
2018-07-10T13:07:01.812Z,23.83
2018-07-10T13:08:08.683Z,23.37
2018-07-10T13:09:16.565Z,23.11
2018-07-10T13:10:23.431Z,22.99
2018-07-10T13:11:29.281Z,22.80
2018-07-10T13:12:36.149Z,22.74
2018-07-10T13:13:42.975Z,22.66
2018-07-10T13:14:49.818Z,22.69
2018-07-10T13:15:56.655Z,22.89
2018-07-10T13:17:03.491Z,23.18
2018-07-10T13:18:10.320Z,23.50
2018-07-10T13:19:17.164Z,23.75
2018-07-10T13:20:24.016Z,23.96
2018-07-10T13:21:30.867Z,24.21
2018-07-10T13:22:37.754Z,24.05
2018-07-10T13:23:44.663Z,24.17
2018-07-10T13:24:51.520Z,23.98
2018-07-10T13:25:58.406Z,23.94
2018-07-10T13:27:06.300Z,23.55
2018-07-10T13:28:12.158Z,23.13
2018-07-10T13:29:19.031Z,22.80
2018-07-10T13:30:25.886Z,22.54
2018-07-10T13:31:32.713Z,22.66
2018-07-10T13:32:39.539Z,22.48
2018-07-10T13:33:46.352Z,22.40
2018-07-10T13:34:53.163Z,22.53
2018-07-10T13:36:00.085Z,22.60
2018-07-10T13:37:06.773Z,22.64
2018-07-10T13:38:13.574Z,22.72
2018-07-10T13:39:20.370Z,22.91
2018-07-10T13:40:27.174Z,23.19
2018-07-10T13:41:33.959Z,23.51
2018-07-10T13:42:40.768Z,23.95
2018-07-10T13:43:47.572Z,23.97
2018-07-10T13:44:54.368Z,24.09
2018-07-10T13:46:01.178Z,23.84
2018-07-10T13:47:07.997Z,23.65
2018-07-10T13:48:14.905Z,23.78
2018-07-10T13:49:21.636Z,24.07
2018-07-10T13:50:28.456Z,24.13
2018-07-10T13:51:35.272Z,24.07
2018-07-10T13:52:42.113Z,24.34
2018-07-10T13:53:49.946Z,24.63
2018-07-10T13:54:55.795Z,24.76
2018-07-10T13:56:02.640Z,24.76
2018-07-10T13:57:09.516Z,24.87
2018-07-10T13:58:16.371Z,24.79
2018-07-10T13:59:23.243Z,24.95
2018-07-10T14:00:30.120Z,25.36
2018-07-10T14:01:37.001Z,25.70
2018-07-10T14:02:43.878Z,25.30
2018-07-10T14:03:50.747Z,24.96
2018-07-10T14:04:57.638Z,24.92
2018-07-10T14:06:04.517Z,25.08
2018-07-10T14:07:11.385Z,25.08
2018-07-10T14:08:18.274Z,25.03
2018-07-10T14:09:25.159Z,25.25
2018-07-10T14:10:32.046Z,25.62
2018-07-10T14:11:38.925Z,25.91
2018-07-10T14:12:45.815Z,26.04
2018-07-10T14:13:52.699Z,26.01
2018-07-10T14:14:59.580Z,25.77
2018-07-10T14:16:06.456Z,25.66
2018-07-10T14:17:13.336Z,25.39
2018-07-10T14:18:20.224Z,25.31